createdAt,value
2019-03-17T00:00:10.043Z,10.50
2019-03-17T00:02:38.611Z,10.50
2019-03-17T00:05:07.202Z,10.50
2019-03-17T00:07:35.767Z,10.50
2019-03-17T00:10:04.636Z,10.60
2019-03-17T00:12:33.198Z,10.70
2019-03-17T00:15:05.729Z,10.70
2019-03-17T00:17:31.944Z,10.70
2019-03-17T00:20:00.569Z,10.70
2019-03-17T00:22:29.124Z,10.80
2019-03-17T00:25:08.501Z,10.80
2019-03-17T00:27:27.858Z,10.70
2019-03-17T00:29:56.429Z,10.70
2019-03-17T00:32:25.087Z,10.70
2019-03-17T00:34:53.663Z,10.70
2019-03-17T00:37:22.247Z,10.60
2019-03-17T00:39:50.835Z,10.60
2019-03-17T00:42:19.415Z,10.50
2019-03-17T00:44:47.993Z,10.60
2019-03-17T00:47:16.606Z,10.60
2019-03-17T00:49:45.189Z,10.50
2019-03-17T00:52:13.757Z,10.50
2019-03-17T00:54:42.351Z,10.40
2019-03-17T00:57:10.909Z,10.30
2019-03-17T00:59:39.502Z,10.20
2019-03-17T01:02:08.072Z,10.20
2019-03-17T01:04:36.708Z,10.20
2019-03-17T01:07:05.283Z,10.10
2019-03-17T01:09:33.863Z,10.10
2019-03-17T01:12:02.438Z,10.00
2019-03-17T01:14:31.048Z,10.00
2019-03-17T01:16:59.616Z,10.00
2019-03-17T01:19:28.182Z,10.00
2019-03-17T01:21:56.779Z,10.00
2019-03-17T01:24:25.346Z,10.00
2019-03-17T01:26:53.926Z,10.00
2019-03-17T01:29:22.498Z,10.10
2019-03-17T01:31:51.091Z,10.00
2019-03-17T01:34:19.654Z,10.10
2019-03-17T01:36:48.311Z,10.00
2019-03-17T01:39:16.956Z,10.10
2019-03-17T01:41:45.537Z,10.10
2019-03-17T01:44:14.122Z,10.00
2019-03-17T01:46:42.755Z,9.80
2019-03-17T01:49:11.345Z,9.70
2019-03-17T01:51:39.904Z,9.70
2019-03-17T01:54:08.488Z,9.70
2019-03-17T01:56:37.051Z,9.90
2019-03-17T01:59:05.731Z,9.90
2019-03-17T02:01:34.291Z,9.80
2019-03-17T02:04:02.846Z,9.70
2019-03-17T02:06:31.450Z,9.70
2019-03-17T02:08:59.997Z,9.70
2019-03-17T02:11:28.588Z,9.70
2019-03-17T02:13:57.223Z,9.60
2019-03-17T02:16:25.812Z,9.60
2019-03-17T02:18:54.374Z,9.60
2019-03-17T02:21:22.959Z,9.50
2019-03-17T02:23:51.609Z,9.50
2019-03-17T02:26:20.290Z,9.40
2019-03-17T02:28:48.860Z,9.30
2019-03-17T02:31:19.491Z,9.20
2019-03-17T02:33:48.095Z,9.30
2019-03-17T02:36:16.643Z,9.30
2019-03-17T02:38:45.235Z,9.40
2019-03-17T02:41:13.798Z,9.30
2019-03-17T02:43:42.388Z,9.30
2019-03-17T02:46:10.957Z,9.40
2019-03-17T02:48:39.547Z,9.40
2019-03-17T02:51:08.111Z,9.30
2019-03-17T02:53:36.676Z,9.40
2019-03-17T02:56:05.261Z,9.40
2019-03-17T02:58:33.828Z,9.40
2019-03-17T03:01:02.430Z,9.40
2019-03-17T03:03:31.066Z,9.40
2019-03-17T03:05:59.652Z,9.40
2019-03-17T03:08:28.223Z,9.30
2019-03-17T03:10:56.861Z,9.30
2019-03-17T03:13:25.432Z,9.30
2019-03-17T03:15:53.968Z,9.30
2019-03-17T03:18:22.551Z,9.20
2019-03-17T03:20:51.114Z,9.30
2019-03-17T03:23:19.704Z,9.40
2019-03-17T03:25:48.262Z,9.40
2019-03-17T03:28:16.851Z,9.40
2019-03-17T03:30:45.436Z,9.30
2019-03-17T03:33:14.012Z,9.30
2019-03-17T03:35:42.575Z,9.40
2019-03-17T03:38:11.188Z,9.40
2019-03-17T03:40:39.758Z,9.50
2019-03-17T03:43:08.319Z,9.40
2019-03-17T03:45:36.902Z,9.40
2019-03-17T03:48:05.463Z,9.40
2019-03-17T03:50:34.056Z,9.40
2019-03-17T03:53:02.694Z,9.30
2019-03-17T03:55:31.273Z,9.20
2019-03-17T03:57:59.825Z,9.20
2019-03-17T04:00:28.542Z,9.20
2019-03-17T04:02:57.173Z,9.30
2019-03-17T04:05:25.730Z,9.20
2019-03-17T04:07:54.308Z,9.20
2019-03-17T04:10:22.941Z,9.10
2019-03-17T04:12:51.518Z,9.00
2019-03-17T04:15:20.095Z,9.00
2019-03-17T04:17:48.689Z,9.00
2019-03-17T04:20:17.252Z,9.10
2019-03-17T04:22:45.836Z,9.10
2019-03-17T04:25:18.287Z,9.10
2019-03-17T04:27:46.944Z,9.10
2019-03-17T04:30:15.473Z,9.00
2019-03-17T04:32:44.035Z,8.90
2019-03-17T04:35:12.635Z,8.90
2019-03-17T04:37:41.199Z,8.80
2019-03-17T04:40:10.065Z,8.60
2019-03-17T04:42:38.711Z,8.60
2019-03-17T04:45:08.025Z,8.50
2019-03-17T04:47:36.583Z,8.50
2019-03-17T04:50:06.235Z,8.60
2019-03-17T04:52:34.797Z,8.60
2019-03-17T04:55:03.435Z,8.60
2019-03-17T04:57:32.023Z,8.60
2019-03-17T05:00:00.581Z,8.50
2019-03-17T05:02:29.175Z,8.40
2019-03-17T05:04:57.735Z,8.50
2019-03-17T05:07:26.321Z,8.50
2019-03-17T05:09:54.880Z,8.50
2019-03-17T05:12:23.540Z,8.50
2019-03-17T05:14:52.105Z,8.50
2019-03-17T05:17:20.727Z,8.70
2019-03-17T05:19:49.277Z,8.70
2019-03-17T05:22:17.848Z,8.70
2019-03-17T05:24:46.503Z,8.70
2019-03-17T05:27:15.076Z,8.70
2019-03-17T05:29:43.662Z,8.80
2019-03-17T05:32:15.027Z,8.80
2019-03-17T05:34:43.612Z,8.70
2019-03-17T05:37:12.182Z,8.70
2019-03-17T05:39:40.776Z,8.70
2019-03-17T05:42:09.336Z,8.70
2019-03-17T05:44:38.042Z,8.80
2019-03-17T05:47:06.606Z,8.80
2019-03-17T05:49:35.174Z,8.80
2019-03-17T05:52:03.763Z,8.70
2019-03-17T05:54:32.323Z,8.80
2019-03-17T05:57:00.921Z,8.80
2019-03-17T05:59:29.487Z,8.70
2019-03-17T06:01:58.079Z,8.80
2019-03-17T06:04:26.646Z,8.90
2019-03-17T06:06:56.254Z,8.90
2019-03-17T06:09:24.807Z,8.90
2019-03-17T06:11:53.400Z,8.90
2019-03-17T06:14:22.031Z,8.90
2019-03-17T06:16:50.622Z,8.90
2019-03-17T06:19:19.182Z,9.00
2019-03-17T06:21:47.816Z,9.10
2019-03-17T06:24:16.415Z,9.10
2019-03-17T06:26:45.007Z,9.20
2019-03-17T06:29:13.599Z,9.20
2019-03-17T06:31:42.166Z,9.30
2019-03-17T06:34:10.756Z,9.30
2019-03-17T06:36:39.329Z,9.20
2019-03-17T06:39:07.985Z,9.20
2019-03-17T06:41:36.538Z,9.20
2019-03-17T06:44:05.129Z,9.30
2019-03-17T06:46:33.688Z,9.40
2019-03-17T06:49:02.305Z,9.50
2019-03-17T06:51:30.880Z,9.60
2019-03-17T06:53:59.443Z,9.60
2019-03-17T06:56:28.035Z,9.70
2019-03-17T06:58:56.602Z,9.80
2019-03-17T07:01:25.187Z,9.70
2019-03-17T07:03:53.763Z,9.80
2019-03-17T07:06:22.449Z,9.90
2019-03-17T07:08:51.019Z,10.00
2019-03-17T07:11:19.643Z,10.10
2019-03-17T07:13:48.223Z,10.20
2019-03-17T07:16:16.806Z,10.30
2019-03-17T07:18:45.430Z,10.40
2019-03-17T07:21:14.113Z,10.30
2019-03-17T07:23:42.694Z,10.40
2019-03-17T07:26:11.445Z,10.50
2019-03-17T07:28:41.692Z,10.60
2019-03-17T07:31:10.262Z,10.80
2019-03-17T07:33:38.851Z,10.90
2019-03-17T07:36:07.419Z,10.90
2019-03-17T07:38:36.006Z,11.10
2019-03-17T07:41:04.584Z,11.30
2019-03-17T07:43:33.165Z,11.30
2019-03-17T07:46:01.811Z,11.50
2019-03-17T07:48:30.412Z,11.60
2019-03-17T07:50:59.020Z,11.70
2019-03-17T07:53:27.622Z,11.60
2019-03-17T07:55:56.203Z,11.80
2019-03-17T07:58:24.774Z,11.90
2019-03-17T08:00:53.369Z,12.00
2019-03-17T08:03:21.940Z,12.20
2019-03-17T08:05:50.526Z,12.30
2019-03-17T08:08:19.086Z,12.50
2019-03-17T08:10:47.684Z,12.60
2019-03-17T08:13:16.268Z,12.80
2019-03-17T08:15:44.891Z,12.80
2019-03-17T08:18:13.467Z,12.90
2019-03-17T08:20:42.033Z,13.00
2019-03-17T08:23:10.636Z,13.10
2019-03-17T08:25:39.211Z,13.20
2019-03-17T08:28:07.791Z,13.40
2019-03-17T08:30:36.364Z,13.50
2019-03-17T08:33:06.159Z,13.50
2019-03-17T08:35:34.731Z,13.60
2019-03-17T08:38:03.348Z,13.70
2019-03-17T08:40:31.920Z,13.80
2019-03-17T08:43:00.481Z,14.00
2019-03-17T08:45:29.079Z,14.00
2019-03-17T08:47:58.684Z,14.30
2019-03-17T08:50:27.347Z,14.40
2019-03-17T08:52:55.915Z,14.50
2019-03-17T08:55:24.500Z,14.40
2019-03-17T08:57:53.066Z,14.70
2019-03-17T09:00:21.720Z,14.80
2019-03-17T09:02:50.296Z,14.80
2019-03-17T09:05:18.874Z,14.80
2019-03-17T09:07:47.451Z,14.70
2019-03-17T09:10:16.388Z,14.80
2019-03-17T09:12:44.966Z,14.80
2019-03-17T09:15:13.535Z,15.00
2019-03-17T09:17:42.124Z,15.00
2019-03-17T09:20:14.285Z,15.00
2019-03-17T09:22:42.909Z,15.10
2019-03-17T09:25:11.632Z,15.30
2019-03-17T09:27:40.195Z,15.60
2019-03-17T09:30:11.690Z,15.70
2019-03-17T09:32:40.271Z,15.80
2019-03-17T09:35:10.107Z,15.80
2019-03-17T09:37:38.690Z,15.80
2019-03-17T09:40:14.881Z,15.70
2019-03-17T09:42:43.530Z,16.00
2019-03-17T09:45:13.093Z,16.00
2019-03-17T09:47:41.738Z,16.20
2019-03-17T09:50:15.060Z,16.20
2019-03-17T09:52:43.630Z,16.30
2019-03-17T09:55:12.263Z,16.30
2019-03-17T09:57:40.824Z,16.20
2019-03-17T10:00:12.661Z,16.40
2019-03-17T10:02:41.315Z,16.50
2019-03-17T10:05:10.581Z,16.70
2019-03-17T10:07:39.197Z,16.70
2019-03-17T10:10:11.190Z,16.30
2019-03-17T10:12:39.756Z,16.40
2019-03-17T10:15:11.268Z,16.60
2019-03-17T10:17:39.899Z,16.50
2019-03-17T10:20:18.571Z,16.40
2019-03-17T10:22:47.222Z,16.60
2019-03-17T10:25:15.804Z,16.70
2019-03-17T10:27:44.388Z,17.30
2019-03-17T10:30:17.953Z,17.70
2019-03-17T10:32:46.524Z,17.80
2019-03-17T10:35:15.124Z,18.20
2019-03-17T10:37:43.673Z,18.30
2019-03-17T10:40:17.008Z,18.50
2019-03-17T10:42:45.609Z,18.20
2019-03-17T10:45:14.648Z,18.10
2019-03-17T10:47:43.206Z,17.80
2019-03-17T10:50:21.494Z,17.70
2019-03-17T10:52:50.109Z,18.10
2019-03-17T10:55:18.690Z,18.50
2019-03-17T10:57:47.262Z,18.60
2019-03-17T11:00:21.017Z,18.30
2019-03-17T11:02:49.589Z,18.60
2019-03-17T11:05:18.159Z,18.70
2019-03-17T11:07:46.751Z,18.30
2019-03-17T11:10:15.384Z,18.00
2019-03-17T11:12:43.970Z,17.90
2019-03-17T11:15:20.580Z,17.80
2019-03-17T11:17:49.192Z,17.60
2019-03-17T11:20:17.771Z,17.60
2019-03-17T11:22:46.361Z,17.30
2019-03-17T11:25:16.287Z,17.30
2019-03-17T11:27:44.942Z,17.30
2019-03-17T11:30:14.907Z,17.20
2019-03-17T11:32:43.471Z,17.40
2019-03-17T11:35:12.073Z,17.40
2019-03-17T11:37:40.634Z,17.50
2019-03-17T11:40:17.291Z,17.60
2019-03-17T11:42:45.859Z,17.80
2019-03-17T11:45:14.981Z,18.00
2019-03-17T11:47:44.085Z,18.20
2019-03-17T11:50:18.722Z,18.10
2019-03-17T11:52:47.377Z,18.10
2019-03-17T11:55:15.963Z,18.30
2019-03-17T11:57:44.522Z,18.30
2019-03-17T12:00:20.505Z,18.60
2019-03-17T12:02:49.110Z,18.30
2019-03-17T12:05:17.675Z,18.60
2019-03-17T12:07:46.272Z,19.10
2019-03-17T12:10:16.015Z,19.80
2019-03-17T12:12:44.575Z,20.00
2019-03-17T12:15:21.429Z,20.20
2019-03-17T12:17:50.024Z,20.20
2019-03-17T12:20:18.609Z,20.30
2019-03-17T12:22:47.195Z,20.00
2019-03-17T12:25:16.920Z,20.10
2019-03-17T12:27:45.498Z,20.00
2019-03-17T12:30:23.875Z,19.70
2019-03-17T12:32:53.008Z,19.20
2019-03-17T12:35:21.572Z,19.60
2019-03-17T12:37:50.276Z,19.60
2019-03-17T12:40:18.902Z,19.60
2019-03-17T12:42:47.480Z,19.80
2019-03-17T12:45:16.072Z,20.10
2019-03-17T12:47:44.646Z,20.20
2019-03-17T12:50:22.354Z,20.60
2019-03-17T12:52:50.924Z,20.90
2019-03-17T12:55:19.525Z,20.50
2019-03-17T12:57:48.095Z,20.80
2019-03-17T13:00:17.836Z,20.70
2019-03-17T13:02:46.387Z,20.90
2019-03-17T13:05:14.961Z,20.50
2019-03-17T13:07:43.554Z,20.50
2019-03-17T13:10:17.361Z,20.40
2019-03-17T13:12:46.007Z,20.90
2019-03-17T13:15:14.649Z,20.40
2019-03-17T13:17:43.247Z,20.40
2019-03-17T13:20:21.127Z,20.10
2019-03-17T13:22:49.702Z,20.40
2019-03-17T13:25:18.278Z,20.50
2019-03-17T13:27:46.870Z,20.40
2019-03-17T13:30:16.357Z,20.20
2019-03-17T13:32:44.918Z,20.10
2019-03-17T13:35:13.511Z,20.00
2019-03-17T13:37:42.116Z,20.00
2019-03-17T13:40:28.276Z,20.20
2019-03-17T13:42:48.100Z,20.30
2019-03-17T13:45:16.689Z,20.50
2019-03-17T13:47:45.266Z,20.50
2019-03-17T13:50:20.568Z,21.60
2019-03-17T13:52:49.138Z,22.90
2019-03-17T13:55:17.739Z,23.00
2019-03-17T13:58:09.590Z,23.50
2019-03-17T14:00:38.182Z,22.60
2019-03-17T14:03:06.739Z,20.50
2019-03-17T14:05:35.389Z,20.00
2019-03-17T14:08:03.959Z,19.60
2019-03-17T14:10:40.971Z,19.20
2019-03-17T14:13:02.705Z,18.80
2019-03-17T14:15:31.275Z,18.50
2019-03-17T14:17:59.863Z,18.50
2019-03-17T14:20:28.431Z,18.20
2019-03-17T14:22:57.024Z,18.50
2019-03-17T14:25:31.338Z,18.70
2019-03-17T14:28:00.022Z,18.50
2019-03-17T14:30:30.052Z,18.50
2019-03-17T14:32:58.646Z,18.50
2019-03-17T14:35:27.210Z,18.30
2019-03-17T14:37:55.795Z,18.40
2019-03-17T14:40:24.447Z,18.50
2019-03-17T14:42:55.275Z,19.90
2019-03-17T14:45:23.182Z,21.30
2019-03-17T14:47:51.782Z,21.50
2019-03-17T14:50:21.388Z,20.80
2019-03-17T14:52:50.012Z,20.00
2019-03-17T14:55:18.580Z,19.70
2019-03-17T14:57:47.171Z,19.60
2019-03-17T15:00:19.516Z,19.40
2019-03-17T15:02:48.090Z,19.10
2019-03-17T15:05:16.686Z,18.60
2019-03-17T15:07:45.253Z,18.20
2019-03-17T15:10:21.248Z,18.00
2019-03-17T15:12:49.810Z,18.00
2019-03-17T15:15:20.510Z,18.30
2019-03-17T15:17:49.088Z,18.30
2019-03-17T15:20:19.330Z,18.10
2019-03-17T15:22:47.893Z,17.80
2019-03-17T15:25:16.499Z,17.60
2019-03-17T15:27:45.089Z,17.60
2019-03-17T15:30:21.970Z,17.60
2019-03-17T15:32:50.538Z,17.70
2019-03-17T15:35:19.191Z,17.90
2019-03-17T15:37:48.106Z,17.40
2019-03-17T15:40:18.084Z,17.30
2019-03-17T15:42:46.657Z,17.40
2019-03-17T15:45:16.761Z,17.20
2019-03-17T15:47:45.339Z,17.30
2019-03-17T15:50:18.699Z,17.20
2019-03-17T15:52:47.298Z,17.30
2019-03-17T15:55:16.933Z,17.20
2019-03-17T15:58:04.931Z,17.10
2019-03-17T16:00:33.516Z,17.20
2019-03-17T16:03:02.100Z,17.30
2019-03-17T16:05:30.679Z,17.20
2019-03-17T16:07:59.303Z,17.10
2019-03-17T16:10:30.291Z,17.10
2019-03-17T16:12:58.928Z,17.00
2019-03-17T16:15:27.921Z,16.90
2019-03-17T16:17:56.500Z,17.00
2019-03-17T16:20:28.903Z,17.00
2019-03-17T16:22:57.468Z,17.00
2019-03-17T16:25:28.656Z,17.10
2019-03-17T16:27:57.191Z,17.00
2019-03-17T16:30:28.078Z,17.00
2019-03-17T16:32:56.636Z,17.10
2019-03-17T16:35:25.233Z,17.00
2019-03-17T16:37:53.798Z,17.00
2019-03-17T16:40:27.389Z,16.90
2019-03-17T16:42:55.994Z,16.80
2019-03-17T16:45:24.523Z,16.70
2019-03-17T16:47:53.107Z,16.70
2019-03-17T16:50:22.815Z,16.80
2019-03-17T16:52:51.411Z,16.80
2019-03-17T16:55:23.250Z,16.70
2019-03-17T16:57:51.829Z,16.80
2019-03-17T17:00:25.076Z,16.70
2019-03-17T17:02:53.727Z,16.60
2019-03-17T17:05:23.233Z,16.60
2019-03-17T17:07:51.826Z,16.50
2019-03-17T17:10:29.635Z,16.30
2019-03-17T17:12:58.224Z,16.40
2019-03-17T17:15:28.870Z,16.40
2019-03-17T17:17:58.664Z,16.40
2019-03-17T17:20:32.587Z,16.30
2019-03-17T17:23:01.184Z,16.30
2019-03-17T17:25:29.755Z,16.40
2019-03-17T17:27:58.414Z,16.20
2019-03-17T17:30:26.986Z,16.20
2019-03-17T17:32:57.341Z,16.20
2019-03-17T17:35:26.169Z,16.40
2019-03-17T17:37:54.727Z,16.20
2019-03-17T17:40:27.556Z,16.20
2019-03-17T17:42:56.130Z,16.30
2019-03-17T17:45:25.566Z,16.20
2019-03-17T17:47:54.128Z,16.20
2019-03-17T17:50:24.340Z,16.20
2019-03-17T17:52:52.935Z,16.20
2019-03-17T17:55:23.021Z,16.20
2019-03-17T17:57:53.238Z,16.10
2019-03-17T18:00:23.613Z,16.30
2019-03-17T18:02:52.200Z,16.30
2019-03-17T18:05:20.773Z,16.30
2019-03-17T18:07:49.376Z,16.30
2019-03-17T18:10:18.729Z,16.30
2019-03-17T18:12:47.350Z,16.30
2019-03-17T18:15:24.155Z,16.40
2019-03-17T18:17:52.791Z,16.40
2019-03-17T18:20:23.169Z,16.30
2019-03-17T18:22:52.241Z,16.20
2019-03-17T18:25:21.867Z,16.20
2019-03-17T18:27:50.604Z,16.10
2019-03-17T18:30:20.619Z,16.20
2019-03-17T18:32:49.201Z,16.20
2019-03-17T18:35:17.854Z,16.20
2019-03-17T18:37:46.459Z,16.20
2019-03-17T18:40:16.081Z,16.10
2019-03-17T18:42:44.658Z,16.10
2019-03-17T18:45:26.739Z,16.10
2019-03-17T18:47:57.449Z,16.10
2019-03-17T18:50:25.488Z,16.00
2019-03-17T18:52:54.047Z,16.00
2019-03-17T18:55:22.643Z,16.00
2019-03-17T18:57:51.210Z,16.00
2019-03-17T19:00:20.832Z,16.00
2019-03-17T19:02:49.468Z,15.90
2019-03-17T19:05:20.001Z,16.10
2019-03-17T19:07:48.674Z,16.10
2019-03-17T19:10:18.187Z,16.00
2019-03-17T19:12:46.777Z,15.90
2019-03-17T19:15:18.606Z,15.90
2019-03-17T19:17:47.628Z,15.90
2019-03-17T19:20:17.100Z,15.70
2019-03-17T19:22:45.711Z,15.70
2019-03-17T19:25:22.783Z,15.70
2019-03-17T19:27:51.486Z,15.70
2019-03-17T19:30:20.911Z,15.70
2019-03-17T19:32:49.520Z,15.70
2019-03-17T19:35:18.100Z,15.60
2019-03-17T19:37:46.659Z,15.50
2019-03-17T19:40:19.223Z,15.40
2019-03-17T19:42:57.944Z,15.20
2019-03-17T19:45:17.994Z,15.10
2019-03-17T19:47:46.566Z,15.10
2019-03-17T19:50:17.362Z,15.00
2019-03-17T19:52:45.923Z,15.00
2019-03-17T19:55:14.518Z,14.90
2019-03-17T19:57:43.223Z,15.00
2019-03-17T20:00:35.788Z,14.90
2019-03-17T20:03:08.301Z,14.80
2019-03-17T20:05:36.895Z,14.70
2019-03-17T20:08:05.690Z,14.70
2019-03-17T20:10:35.031Z,14.60
2019-03-17T20:13:11.527Z,14.70
2019-03-17T20:15:33.965Z,14.60
2019-03-17T20:18:02.540Z,14.60
2019-03-17T20:20:31.106Z,14.30
2019-03-17T20:22:59.693Z,14.30
2019-03-17T20:25:28.263Z,14.30
2019-03-17T20:27:56.860Z,14.40
2019-03-17T20:30:26.698Z,14.30
2019-03-17T20:32:55.347Z,14.20
2019-03-17T20:35:23.953Z,14.10
2019-03-17T20:37:52.567Z,14.10
2019-03-17T20:40:21.164Z,14.10
2019-03-17T20:42:49.811Z,14.00
2019-03-17T20:45:20.324Z,14.10
2019-03-17T20:47:49.626Z,14.10
2019-03-17T20:50:19.066Z,14.20
2019-03-17T20:52:47.795Z,14.20
2019-03-17T20:55:16.380Z,14.20
2019-03-17T20:57:44.955Z,14.30
2019-03-17T21:00:17.320Z,14.20
2019-03-17T21:02:45.884Z,14.20
2019-03-17T21:05:14.511Z,14.10
2019-03-17T21:07:43.167Z,14.00
2019-03-17T21:10:15.706Z,14.00
2019-03-17T21:12:44.275Z,14.00
2019-03-17T21:15:20.857Z,14.10
2019-03-17T21:17:49.431Z,14.00
2019-03-17T21:20:21.272Z,14.10
2019-03-17T21:22:49.966Z,14.00
2019-03-17T21:25:18.549Z,14.10
2019-03-17T21:27:47.147Z,14.00
2019-03-17T21:30:27.965Z,14.00
2019-03-17T21:32:56.559Z,14.00
2019-03-17T21:35:25.129Z,13.90
2019-03-17T21:37:53.719Z,13.90
2019-03-17T21:40:22.373Z,13.90
2019-03-17T21:42:50.961Z,13.90
2019-03-17T21:45:19.539Z,14.00
2019-03-17T21:47:48.148Z,14.00
2019-03-17T21:50:22.959Z,13.90
2019-03-17T21:52:51.560Z,13.90
2019-03-17T21:55:20.185Z,13.90
2019-03-17T21:57:48.725Z,13.90
2019-03-17T22:00:18.159Z,13.80
2019-03-17T22:02:46.739Z,13.80
2019-03-17T22:05:15.392Z,13.70
2019-03-17T22:07:50.325Z,13.70
2019-03-17T22:10:16.398Z,13.80
2019-03-17T22:12:44.976Z,13.80
2019-03-17T22:15:14.597Z,13.80
2019-03-17T22:17:43.159Z,13.90
2019-03-17T22:20:13.982Z,13.80
2019-03-17T22:22:42.618Z,13.90
2019-03-17T22:25:14.928Z,13.90
2019-03-17T22:27:43.508Z,13.90
2019-03-17T22:30:15.405Z,13.80
2019-03-17T22:32:43.995Z,13.80
2019-03-17T22:35:12.563Z,13.80
2019-03-17T22:37:41.171Z,13.80
2019-03-17T22:40:15.778Z,13.80
2019-03-17T22:42:44.356Z,13.80
2019-03-17T22:45:13.963Z,13.80
2019-03-17T22:47:42.573Z,13.80
2019-03-17T22:50:17.614Z,13.70
2019-03-17T22:52:46.215Z,13.80
2019-03-17T22:55:14.951Z,13.70
2019-03-17T22:57:43.539Z,13.60
2019-03-17T23:00:26.222Z,13.60
2019-03-17T23:02:54.826Z,13.60
2019-03-17T23:05:23.426Z,13.60
2019-03-17T23:07:51.990Z,13.60
2019-03-17T23:10:20.584Z,13.50
2019-03-17T23:12:49.245Z,13.60
2019-03-17T23:15:17.798Z,13.70
2019-03-17T23:17:46.367Z,13.60
2019-03-17T23:20:16.087Z,13.60
2019-03-17T23:22:44.660Z,13.60
2019-03-17T23:25:13.520Z,13.60
2019-03-17T23:27:42.087Z,13.50
2019-03-17T23:30:17.609Z,13.60
2019-03-17T23:32:48.960Z,13.50
2019-03-17T23:35:16.367Z,13.40
2019-03-17T23:37:44.936Z,13.40
2019-03-17T23:40:14.845Z,13.40
2019-03-17T23:42:43.430Z,13.40
2019-03-17T23:45:12.268Z,13.50
2019-03-17T23:47:40.849Z,13.40
2019-03-17T23:50:11.817Z,13.50
2019-03-17T23:52:40.400Z,13.40
2019-03-17T23:55:12.367Z,13.40
2019-03-17T23:57:40.265Z,13.40
